Time;durP1;ratioP1;P1;durP2;ratioP2;P2;SDS_P1;SDS_P2;PMS_P1;PMS_P2;Temp;Humidity;BMP_temperature;BMP_pressure;BME280_temperature;BME280_humidity;BME280_pressure;Samples;Min_cycle;Max_cycle;Signal;HPM_P1;HPM_P2
2021/12/30 00:00:46;;;;;;;27.90;5.15;;;13.20;99.90;;;;;;5078648;28;20048;-61
2021/12/30 00:03:12;;;;;;;25.15;5.00;;;13.10;99.90;;;;;;5078672;28;20043;-61
2021/12/30 00:05:39;;;;;;;31.60;5.22;;;13.10;99.90;;;;;;5078759;28;20131;-61
2021/12/30 00:08:05;;;;;;;28.77;5.00;;;13.20;99.90;;;;;;5078499;28;20056;-62
2021/12/30 00:10:32;;;;;;;28.85;5.35;;;13.20;99.90;;;;;;5077729;28;20097;-62
2021/12/30 00:12:58;;;;;;;28.55;5.47;;;13.20;99.90;;;;;;5077656;28;20040;-62
2021/12/30 00:15:24;;;;;;;23.10;4.85;;;13.20;99.90;;;;;;5078291;28;20028;-61
2021/12/30 00:17:50;;;;;;;25.55;5.00;;;13.20;99.90;;;;;;5078256;28;20028;-61
2021/12/30 00:20:17;;;;;;;26.75;5.35;;;13.20;99.90;;;;;;5077549;28;20404;-62
2021/12/30 00:22:43;;;;;;;21.60;4.40;;;13.30;99.90;;;;;;5078549;28;20020;-61
2021/12/30 00:25:10;;;;;;;22.55;4.63;;;13.30;99.90;;;;;;5077333;28;20395;-61
2021/12/30 00:27:37;;;;;;;16.95;4.55;;;13.30;99.90;;;;;;5077428;28;20098;-63
2021/12/30 00:30:05;;;;;;;20.05;4.32;;;13.40;99.90;;;;;;5060706;28;20028;-63
2021/12/30 00:32:31;;;;;;;16.65;4.28;;;13.40;99.90;;;;;;5077510;28;20307;-62
2021/12/30 00:34:57;;;;;;;14.70;3.70;;;13.40;99.90;;;;;;5077188;28;20041;-62
2021/12/30 00:37:23;;;;;;;17.98;3.78;;;13.50;99.90;;;;;;5078063;28;20025;-62
2021/12/30 00:39:49;;;;;;;18.00;4.03;;;13.60;99.90;;;;;;5077903;28;20036;-62
2021/12/30 00:42:15;;;;;;;12.18;3.70;;;13.60;99.90;;;;;;5077029;28;20111;-62
2021/12/30 00:44:41;;;;;;;14.88;3.63;;;13.80;99.90;;;;;;5078400;28;20028;-61
2021/12/30 00:47:06;;;;;;;12.30;3.58;;;13.90;99.90;;;;;;5043734;28;20119;-61
2021/12/30 00:49:32;;;;;;;11.45;3.38;;;13.90;99.90;;;;;;5077758;28;20036;-62
2021/12/30 00:51:58;;;;;;;12.27;2.95;;;14.00;99.90;;;;;;5077635;28;20295;-62
2021/12/30 00:54:24;;;;;;;9.32;3.55;;;14.20;99.90;;;;;;5077613;28;20040;-62
2021/12/30 00:56:50;;;;;;;8.75;2.78;;;14.20;99.90;;;;;;5060595;28;20249;-62
2021/12/30 00:59:17;;;;;;;11.63;2.85;;;14.20;99.90;;;;;;5076117;28;20029;-60
2021/12/30 01:01:43;;;;;;;9.02;2.63;;;14.30;99.90;;;;;;5077562;28;20323;-61
2021/12/30 01:04:09;;;;;;;7.85;2.03;;;14.30;99.90;;;;;;5076806;28;20090;-61
2021/12/30 01:06:35;;;;;;;6.07;2.28;;;14.40;99.90;;;;;;5076701;28;20036;-63
2021/12/30 01:09:02;;;;;;;8.45;2.10;;;14.40;99.90;;;;;;5060089;28;20281;-62
2021/12/30 01:11:28;;;;;;;4.32;1.85;;;14.30;99.90;;;;;;5077159;28;20036;-61
2021/12/30 01:14:14;;;;;;;8.52;2.67;;;14.30;99.90;;;;;;5077123;28;20038;-62
2021/12/30 01:16:42;;;;;;;7.75;1.95;;;14.30;99.90;;;;;;5077055;28;20028;-61
2021/12/30 01:19:42;;;;;;;5.97;1.80;;;14.20;99.90;;;;;;5077134;28;20035;-60
2021/12/30 01:22:28;;;;;;;7.40;2.05;;;14.30;99.90;;;;;;5076964;28;20085;-59
2021/12/30 01:24:55;;;;;;;5.95;2.08;;;14.20;99.90;;;;;;5077157;28;20418;-59
2021/12/30 01:27:21;;;;;;;10.70;2.47;;;14.10;99.90;;;;;;5076200;28;20024;-61
2021/12/30 01:29:48;;;;;;;8.27;2.47;;;14.00;99.90;;;;;;5076922;28;20044;-61
2021/12/30 01:32:14;;;;;;;4.35;2.05;;;14.00;99.90;;;;;;5076940;28;20037;-61
2021/12/30 01:34:41;;;;;;;4.90;2.22;;;14.00;99.90;;;;;;5076625;28;20113;-61
2021/12/30 01:37:06;;;;;;;4.38;2.35;;;14.10;99.90;;;;;;5076294;28;20146;-62
2021/12/30 01:39:37;;;;;;;4.22;1.80;;;14.20;99.90;;;;;;5076736;28;20042;-60
2021/12/30 01:42:05;;;;;;;5.25;1.88;;;14.30;99.90;;;;;;5076859;28;20037;-60
2021/12/30 01:44:32;;;;;;;4.18;1.77;;;14.30;99.90;;;;;;5076086;28;20020;-61
2021/12/30 01:46:58;;;;;;;3.83;1.85;;;14.20;99.90;;;;;;5059474;28;20029;-62
2021/12/30 01:49:24;;;;;;;2.90;1.60;;;14.20;99.90;;;;;;5076808;28;20032;-61
2021/12/30 01:51:52;;;;;;;3.95;1.80;;;14.10;99.90;;;;;;5076868;28;20515;-59
2021/12/30 01:54:18;;;;;;;3.13;1.58;;;14.10;99.90;;;;;;5076859;28;20273;-61
2021/12/30 01:56:45;;;;;;;3.40;1.60;;;14.10;99.90;;;;;;5059229;28;20052;-60
2021/12/30 01:59:12;;;;;;;4.78;2.17;;;14.10;99.90;;;;;;5076713;28;20119;-62
2021/12/30 02:01:38;;;;;;;5.30;1.83;;;14.30;99.90;;;;;;5076834;28;20434;-59
2021/12/30 02:04:04;;;;;;;4.30;1.70;;;14.30;99.90;;;;;;5076690;28;20295;-59
2021/12/30 02:06:30;;;;;;;6.13;1.70;;;14.40;99.90;;;;;;5076600;28;20031;-61
2021/12/30 02:08:56;;;;;;;2.70;1.80;;;14.40;99.90;;;;;;5076564;28;20035;-60
2021/12/30 02:11:22;;;;;;;4.07;1.88;;;14.40;99.90;;;;;;5079202;28;20124;-60
2021/12/30 02:13:50;;;;;;;3.20;1.60;;;14.40;99.90;;;;;;5080552;28;20051;-61
2021/12/30 02:16:17;;;;;;;2.33;1.52;;;14.30;99.90;;;;;;5079683;28;20346;-60
2021/12/30 02:18:43;;;;;;;3.40;1.80;;;14.10;99.90;;;;;;5080461;28;20032;-61
2021/12/30 02:21:09;;;;;;;2.72;1.70;;;14.00;99.90;;;;;;5080525;28;20300;-60
2021/12/30 02:23:37;;;;;;;1.60;1.50;;;13.80;99.90;;;;;;5080338;28;20035;-61
2021/12/30 02:26:15;;;;;;;3.47;1.70;;;13.80;99.90;;;;;;5080259;28;20032;-62
2021/12/30 02:28:42;;;;;;;2.05;1.40;;;13.60;99.90;;;;;;5080311;28;20093;-61
2021/12/30 02:31:22;;;;;;;3.22;1.65;;;13.60;99.90;;;;;;5079462;28;20039;-62
2021/12/30 02:33:49;;;;;;;3.28;1.80;;;13.70;99.90;;;;;;5080113;28;20383;-60
2021/12/30 02:36:18;;;;;;;2.67;1.92;;;13.70;99.90;;;;;;5079251;28;20040;-60
2021/12/30 02:38:46;;;;;;;2.33;1.88;;;13.60;99.90;;;;;;5079329;28;20040;-60
2021/12/30 02:41:16;;;;;;;3.53;1.73;;;13.60;99.90;;;;;;5079156;28;20033;-59
2021/12/30 02:43:44;;;;;;;3.55;1.80;;;13.60;99.90;;;;;;5080218;28;20343;-59
2021/12/30 02:46:10;;;;;;;2.05;1.63;;;13.60;99.90;;;;;;5079948;28;20135;-59
2021/12/30 02:48:38;;;;;;;1.83;1.63;;;13.60;99.90;;;;;;5079121;28;20115;-61
2021/12/30 02:51:07;;;;;;;3.03;1.70;;;13.80;99.90;;;;;;5079100;28;20039;-60
2021/12/30 02:53:33;;;;;;;1.98;1.70;;;13.80;99.90;;;;;;5079791;28;20028;-62
2021/12/30 02:55:59;;;;;;;2.30;1.33;;;13.80;99.90;;;;;;5079765;28;20281;-61
2021/12/30 02:58:26;;;;;;;3.63;1.38;;;13.90;99.90;;;;;;5078874;28;20483;-60
2021/12/30 03:01:10;;;;;;;1.85;1.20;;;14.00;99.90;;;;;;5079724;28;20031;-61
2021/12/30 03:03:36;;;;;;;1.70;1.30;;;14.00;99.90;;;;;;5079717;28;20063;-61
2021/12/30 03:06:06;;;;;;;2.17;1.38;;;14.10;99.90;;;;;;5079213;28;20028;-59
2021/12/30 03:08:32;;;;;;;2.10;1.40;;;14.10;99.90;;;;;;5079566;28;20273;-60
2021/12/30 03:10:59;;;;;;;1.23;1.08;;;14.10;99.90;;;;;;5079466;28;20033;-62
2021/12/30 03:13:32;;;;;;;1.30;1.20;;;14.10;99.90;;;;;;5079687;28;20419;-60
2021/12/30 03:16:11;;;;;;;1.13;1.02;;;14.30;99.90;;;;;;5079521;28;20040;-60
2021/12/30 03:18:37;;;;;;;2.42;1.30;;;14.30;99.90;;;;;;5079366;28;20044;-61
2021/12/30 03:21:05;;;;;;;1.50;1.10;;;14.30;99.90;;;;;;5078772;28;20033;-60
2021/12/30 03:23:31;;;;;;;1.75;1.40;;;14.40;99.90;;;;;;5078199;28;20032;-62
2021/12/30 03:25:57;;;;;;;1.42;1.33;;;14.40;99.90;;;;;;5079043;28;20399;-60
2021/12/30 03:28:23;;;;;;;3.05;1.40;;;14.30;99.90;;;;;;5079251;28;20029;-61
2021/12/30 03:30:50;;;;;;;2.15;1.23;;;14.40;99.90;;;;;;5079607;28;20170;-61
2021/12/30 03:33:16;;;;;;;2.40;1.52;;;14.50;99.90;;;;;;5079181;28;20047;-60
2021/12/30 03:35:42;;;;;;;1.42;1.20;;;14.50;99.90;;;;;;5079003;28;20423;-62
2021/12/30 03:38:07;;;;;;;1.30;1.20;;;14.50;99.90;;;;;;5079012;28;20039;-59
2021/12/30 03:40:35;;;;;;;1.33;1.20;;;14.50;99.90;;;;;;5078241;28;20097;-59
2021/12/30 03:43:01;;;;;;;2.00;1.20;;;14.50;99.90;;;;;;5078896;28;20056;-59
2021/12/30 03:45:27;;;;;;;0.82;0.82;;;14.50;99.90;;;;;;5079437;28;20265;-59
2021/12/30 03:47:53;;;;;;;1.17;1.00;;;14.40;99.90;;;;;;5078824;28;20029;-58
2021/12/30 03:50:25;;;;;;;1.10;1.00;;;14.50;99.90;;;;;;5078735;28;20024;-62
2021/12/30 03:52:57;;;;;;;0.80;0.80;;;14.50;99.90;;;;;;5079952;28;20380;-59
2021/12/30 03:55:25;;;;;;;0.85;0.68;;;14.50;99.90;;;;;;5078666;28;20032;-60
2021/12/30 03:57:52;;;;;;;0.60;0.60;;;14.50;99.90;;;;;;5078622;28;20353;-63
2021/12/30 04:00:21;;;;;;;0.77;0.70;;;14.50;99.90;;;;;;5078563;28;20048;-62
2021/12/30 04:02:47;;;;;;;0.98;0.50;;;14.40;99.90;;;;;;5078488;28;20033;-60
2021/12/30 04:05:13;;;;;;;0.60;0.60;;;14.40;99.90;;;;;;5078483;28;20037;-60
2021/12/30 04:07:39;;;;;;;0.57;0.45;;;14.30;99.90;;;;;;5078525;28;20124;-58
2021/12/30 04:10:08;;;;;;;0.60;0.50;;;14.30;99.90;;;;;;5078393;28;20060;-60
2021/12/30 04:12:34;;;;;;;1.48;0.55;;;14.30;99.90;;;;;;5078298;28;20123;-58
2021/12/30 04:15:02;;;;;;;0.40;0.40;;;14.40;99.90;;;;;;5078296;28;20037;-60
2021/12/30 04:17:29;;;;;;;0.40;0.40;;;14.50;99.90;;;;;;5077197;28;20033;-59
2021/12/30 04:19:55;;;;;;;0.85;0.50;;;14.50;99.90;;;;;;5078156;28;20032;-60
2021/12/30 04:22:20;;;;;;;0.75;0.40;;;14.60;99.90;;;;;;5078065;28;20312;-58
2021/12/30 04:24:46;;;;;;;0.40;0.28;;;14.60;99.90;;;;;;5078187;28;20273;-61
2021/12/30 04:27:13;;;;;;;0.30;0.30;;;14.60;99.90;;;;;;5077955;28;20031;-60
2021/12/30 04:29:39;;;;;;;0.52;0.30;;;14.50;99.90;;;;;;5077955;28;20327;-61
2021/12/30 04:32:05;;;;;;;0.40;0.40;;;14.60;99.90;;;;;;5077058;28;20093;-58
2021/12/30 04:34:30;;;;;;;0.30;0.30;;;14.60;99.90;;;;;;5078195;28;20047;-62
2021/12/30 04:37:00;;;;;;;0.30;0.30;;;14.70;99.90;;;;;;5077788;28;20044;-60
2021/12/30 04:39:28;;;;;;;0.68;0.32;;;14.60;99.90;;;;;;5077772;28;20281;-60
2021/12/30 04:41:54;;;;;;;0.90;0.30;;;14.70;99.90;;;;;;5077060;28;20322;-61
2021/12/30 04:44:21;;;;;;;1.10;0.50;;;14.80;99.90;;;;;;5077376;28;20445;-60
2021/12/30 04:46:47;;;;;;;0.88;0.50;;;14.80;99.90;;;;;;5077690;28;20032;-60
2021/12/30 04:49:13;;;;;;;1.10;0.43;;;14.90;99.90;;;;;;5077590;28;20106;-61
2021/12/30 04:51:39;;;;;;;0.70;0.30;;;15.00;99.90;;;;;;5076687;28;20040;-62
2021/12/30 04:54:04;;;;;;;0.47;0.38;;;15.00;99.90;;;;;;5077431;28;20289;-60
2021/12/30 04:56:30;;;;;;;0.80;0.50;;;15.00;99.90;;;;;;5077381;28;20347;-61
2021/12/30 04:58:56;;;;;;;0.70;0.50;;;15.10;99.90;;;;;;5077388;28;20032;-63
2021/12/30 05:01:22;;;;;;;0.63;0.50;;;15.20;99.90;;;;;;5076619;28;20067;-62
2021/12/30 05:03:48;;;;;;;1.08;0.40;;;15.10;99.90;;;;;;5077268;28;20024;-66
2021/12/30 05:06:14;;;;;;;1.33;0.50;;;15.10;99.90;;;;;;5077650;28;20032;-63
2021/12/30 05:08:39;;;;;;;0.98;0.50;;;15.10;99.90;;;;;;5077412;28;20399;-65
2021/12/30 05:11:05;;;;;;;1.00;0.77;;;14.70;99.90;;;;;;5077225;28;20078;-66
2021/12/30 05:13:31;;;;;;;1.15;0.68;;;14.80;99.90;;;;;;5077252;28;20068;-68
2021/12/30 05:15:57;;;;;;;1.40;0.60;;;14.90;99.90;;;;;;5077106;28;20100;-66
2021/12/30 05:18:31;;;;;;;0.88;0.60;;;14.90;99.90;;;;;;5077114;28;20059;-66
2021/12/30 05:21:04;;;;;;;1.77;0.50;;;14.80;99.90;;;;;;5077702;28;20315;-64
2021/12/30 05:23:31;;;;;;;1.77;0.80;;;14.80;99.90;;;;;;5077248;28;20048;-65
2021/12/30 05:25:57;;;;;;;2.65;0.65;;;14.70;99.90;;;;;;5077068;28;20082;-65
2021/12/30 05:28:24;;;;;;;1.80;0.70;;;14.70;99.90;;;;;;5077085;28;20050;-64
2021/12/30 05:30:50;;;;;;;1.25;0.82;;;14.80;99.90;;;;;;5077614;28;20025;-66
2021/12/30 05:33:16;;;;;;;2.03;0.70;;;14.80;99.90;;;;;;5076318;28;20036;-63
2021/12/30 05:35:42;;;;;;;2.25;0.80;;;14.90;99.90;;;;;;5076788;28;20044;-66
2021/12/30 05:38:07;;;;;;;2.45;0.82;;;14.80;99.90;;;;;;5076981;28;20051;-66
2021/12/30 05:40:34;;;;;;;1.23;0.80;;;14.70;99.90;;;;;;5077008;28;20035;-65
2021/12/30 05:43:00;;;;;;;2.72;0.93;;;14.70;99.90;;;;;;5076925;28;20112;-65
2021/12/30 05:45:26;;;;;;;2.08;1.10;;;14.60;99.90;;;;;;5075740;28;20037;-64
2021/12/30 05:47:53;;;;;;;1.88;0.70;;;14.40;99.90;;;;;;5076860;28;20036;-65
2021/12/30 05:50:25;;;;;;;1.38;1.15;;;14.60;99.90;;;;;;5077170;28;20033;-66
2021/12/30 05:52:50;;;;;;;1.00;0.90;;;14.50;99.90;;;;;;5076867;28;20100;-65
2021/12/30 05:55:17;;;;;;;3.15;1.15;;;14.50;99.90;;;;;;5076778;28;20170;-64
2021/12/30 05:57:43;;;;;;;1.17;1.00;;;14.50;99.90;;;;;;5076723;28;20025;-65
2021/12/30 06:00:13;;;;;;;1.45;0.90;;;14.60;99.90;;;;;;5076812;28;20024;-66
2021/12/30 06:02:40;;;;;;;1.20;0.93;;;14.50;99.90;;;;;;5059724;28;20043;-64
2021/12/30 06:05:06;;;;;;;1.30;0.90;;;14.50;99.90;;;;;;5076774;28;20295;-62
2021/12/30 06:07:33;;;;;;;0.95;0.77;;;14.40;99.90;;;;;;5076677;28;20307;-64
2021/12/30 06:09:59;;;;;;;2.58;0.80;;;14.60;99.90;;;;;;5076726;28;20280;-63
2021/12/30 06:12:25;;;;;;;2.25;0.95;;;14.60;99.90;;;;;;5075974;28;20055;-63
2021/12/30 06:14:51;;;;;;;2.83;0.90;;;14.60;99.90;;;;;;5076622;28;20036;-64
2021/12/30 06:17:17;;;;;;;1.10;0.90;;;14.60;99.90;;;;;;5076578;28;20447;-62
2021/12/30 06:19:43;;;;;;;1.48;0.82;;;14.60;99.90;;;;;;5076637;28;20054;-62
2021/12/30 06:22:10;;;;;;;1.65;0.60;;;14.60;99.90;;;;;;5076519;28;20116;-64
2021/12/30 06:24:36;;;;;;;1.80;0.82;;;14.70;99.90;;;;;;5076537;28;20124;-64
2021/12/30 06:27:02;;;;;;;2.03;0.82;;;14.80;99.90;;;;;;5076555;28;20397;-62
2021/12/30 06:29:28;;;;;;;1.25;0.70;;;14.90;99.90;;;;;;5076529;28;20359;-64
2021/12/30 06:31:53;;;;;;;2.15;0.80;;;15.10;99.90;;;;;;5076443;28;20067;-67
2021/12/30 06:34:19;;;;;;;2.10;0.70;;;15.00;99.90;;;;;;5075749;28;20063;-65
2021/12/30 06:36:45;;;;;;;0.90;0.60;;;15.10;99.90;;;;;;5075640;28;20048;-67
2021/12/30 06:39:11;;;;;;;3.15;0.90;;;14.90;99.90;;;;;;5075715;28;20028;-66
2021/12/30 06:41:37;;;;;;;2.28;1.00;;;15.00;99.90;;;;;;5076368;28;20021;-65
2021/12/30 06:44:04;;;;;;;1.85;0.80;;;14.90;99.90;;;;;;5076401;28;20403;-64
2021/12/30 06:46:29;;;;;;;2.00;0.85;;;15.00;99.90;;;;;;5076630;28;20414;-66
2021/12/30 06:48:55;;;;;;;1.13;0.70;;;15.10;99.90;;;;;;5076249;28;20135;-67
2021/12/30 06:51:23;;;;;;;1.60;0.70;;;15.00;99.90;;;;;;5076363;28;20037;-64
2021/12/30 06:53:54;;;;;;;1.05;0.80;;;14.90;99.90;;;;;;5076277;28;20304;-65
2021/12/30 06:56:21;;;;;;;1.75;1.15;;;15.00;99.90;;;;;;5076292;28;20024;-63
2021/12/30 06:58:47;;;;;;;1.60;1.00;;;15.00;99.90;;;;;;5079855;28;20025;-63
2021/12/30 07:01:13;;;;;;;2.30;0.93;;;15.00;99.90;;;;;;5079837;28;20021;-62
2021/12/30 07:03:39;;;;;;;1.38;0.70;;;15.00;99.90;;;;;;5079852;28;20033;-62
2021/12/30 07:06:05;;;;;;;1.40;0.80;;;15.00;99.90;;;;;;5079621;28;20118;-64
2021/12/30 07:08:31;;;;;;;1.48;0.95;;;14.90;99.90;;;;;;5079698;28;20028;-65
2021/12/30 07:10:57;;;;;;;1.30;0.73;;;14.90;99.90;;;;;;5079641;28;20033;-65
2021/12/30 07:13:22;;;;;;;0.88;0.80;;;14.80;99.90;;;;;;5079548;28;20048;-66
2021/12/30 07:15:48;;;;;;;2.67;0.70;;;14.70;99.90;;;;;;5078815;28;20033;-63
2021/12/30 07:18:14;;;;;;;2.83;0.80;;;14.80;99.90;;;;;;5079514;28;20040;-64
2021/12/30 07:20:40;;;;;;;1.42;0.88;;;14.90;99.90;;;;;;5079413;28;20367;-66
2021/12/30 07:23:06;;;;;;;1.77;0.80;;;14.80;99.90;;;;;;5079326;28;20087;-65
2021/12/30 07:25:32;;;;;;;2.95;0.80;;;14.70;99.90;;;;;;5078672;28;20036;-65
2021/12/30 07:27:57;;;;;;;2.80;0.95;;;14.80;99.90;;;;;;5061830;28;20411;-62
2021/12/30 07:30:25;;;;;;;1.38;0.88;;;14.80;99.90;;;;;;5079387;28;20044;-65
2021/12/30 07:32:52;;;;;;;2.78;0.85;;;14.90;99.90;;;;;;5078361;28;20037;-62
2021/12/30 07:35:19;;;;;;;1.80;1.20;;;14.80;99.90;;;;;;5078863;28;20060;-65
2021/12/30 07:37:46;;;;;;;1.25;0.80;;;14.80;99.90;;;;;;5079085;28;20321;-65
2021/12/30 07:40:12;;;;;;;2.72;0.77;;;14.70;99.90;;;;;;5079064;28;20119;-65
2021/12/30 07:42:39;;;;;;;1.60;0.80;;;14.80;99.90;;;;;;5079124;28;20035;-65
2021/12/30 07:45:05;;;;;;;3.10;1.08;;;14.90;99.90;;;;;;5079542;28;20040;-62
2021/12/30 07:47:31;;;;;;;2.75;0.88;;;14.80;99.90;;;;;;5078856;28;20100;-65
2021/12/30 07:49:57;;;;;;;1.73;0.93;;;14.80;99.90;;;;;;5078826;28;20033;-64
2021/12/30 07:52:23;;;;;;;2.63;0.90;;;14.80;99.90;;;;;;5078823;28;20032;-62
2021/12/30 07:54:49;;;;;;;3.40;1.20;;;14.80;99.90;;;;;;5078972;28;20029;-64
2021/12/30 07:57:21;;;;;;;1.65;0.90;;;14.80;99.90;;;;;;5078758;28;20032;-64
2021/12/30 07:59:51;;;;;;;4.93;1.20;;;14.90;99.90;;;;;;5079016;28;20119;-64
2021/12/30 08:02:17;;;;;;;3.83;1.42;;;15.00;99.90;;;;;;5078524;28;20098;-65
2021/12/30 08:04:43;;;;;;;4.78;1.50;;;15.00;99.90;;;;;;5078538;28;20020;-62
2021/12/30 08:07:09;;;;;;;4.80;1.42;;;14.90;99.90;;;;;;5077591;28;20040;-62
2021/12/30 08:09:35;;;;;;;4.55;1.30;;;14.90;99.90;;;;;;5078292;28;20020;-65
2021/12/30 08:12:01;;;;;;;7.03;2.05;;;14.90;99.90;;;;;;5078870;28;20410;-66
2021/12/30 08:14:27;;;;;;;5.20;1.60;;;14.90;99.90;;;;;;5077571;28;20093;-61
2021/12/30 08:16:54;;;;;;;6.25;1.50;;;14.80;99.90;;;;;;5078358;28;20073;-65
2021/12/30 08:19:20;;;;;;;6.50;1.90;;;15.00;99.90;;;;;;5078165;28;20497;-64
2021/12/30 08:21:45;;;;;;;7.28;1.70;;;14.90;99.90;;;;;;5077559;28;20052;-66
2021/12/30 08:24:12;;;;;;;6.20;2.03;;;15.00;99.90;;;;;;5078125;28;20125;-63
2021/12/30 08:26:38;;;;;;;5.53;1.85;;;15.00;99.90;;;;;;5078328;28;20033;-61
2021/12/30 08:29:05;;;;;;;8.35;2.08;;;15.10;99.90;;;;;;5078013;28;20331;-63
2021/12/30 08:31:33;;;;;;;9.48;2.25;;;15.10;99.90;;;;;;5076931;28;20033;-64
2021/12/30 08:33:59;;;;;;;7.97;1.88;;;15.10;99.90;;;;;;5077817;28;20036;-65
2021/12/30 08:36:25;;;;;;;7.57;1.80;;;15.00;99.90;;;;;;5077632;28;20147;-64
2021/12/30 08:38:51;;;;;;;8.20;1.85;;;15.00;99.90;;;;;;5077691;28;20105;-61
2021/12/30 08:41:17;;;;;;;9.38;1.88;;;14.90;99.90;;;;;;5077925;28;20025;-62
2021/12/30 08:43:43;;;;;;;8.65;1.95;;;14.90;99.90;;;;;;5077744;28;20028;-64
2021/12/30 08:46:09;;;;;;;6.88;1.80;;;14.90;99.90;;;;;;5077684;28;20090;-66
2021/12/30 08:48:36;;;;;;;7.78;2.00;;;14.90;99.90;;;;;;5076952;28;20311;-63
2021/12/30 08:51:03;;;;;;;10.70;2.13;;;15.00;99.90;;;;;;5077549;28;20040;-65
2021/12/30 08:53:29;;;;;;;9.10;2.13;;;15.20;99.90;;;;;;5076727;28;20347;-66
2021/12/30 08:55:55;;;;;;;9.15;2.03;;;15.10;99.90;;;;;;5076592;28;20029;-66
2021/12/30 08:58:21;;;;;;;11.27;2.53;;;15.10;99.90;;;;;;5077430;28;20103;-65
2021/12/30 09:00:47;;;;;;;9.38;2.20;;;15.20;99.90;;;;;;5076625;28;20107;-66
2021/12/30 09:03:16;;;;;;;11.60;2.78;;;15.20;99.90;;;;;;5077285;28;20029;-66
2021/12/30 09:05:42;;;;;;;9.18;2.35;;;15.30;99.90;;;;;;5077894;28;20334;-64
2021/12/30 09:08:08;;;;;;;9.35;2.47;;;15.30;99.90;;;;;;5077177;28;20074;-66
2021/12/30 09:10:40;;;;;;;10.65;2.33;;;15.30;99.90;;;;;;5077291;28;20123;-66
2021/12/30 09:13:08;;;;;;;10.60;2.17;;;15.20;99.90;;;;;;5077185;28;20178;-64
2021/12/30 09:15:34;;;;;;;10.50;2.25;;;15.40;99.90;;;;;;5077072;28;20024;-65
2021/12/30 09:18:01;;;;;;;12.32;2.47;;;15.50;99.90;;;;;;5077090;28;20033;-61
2021/12/30 09:20:28;;;;;;;11.15;2.05;;;15.50;99.90;;;;;;5075496;28;20047;-65
2021/12/30 09:22:54;;;;;;;10.15;2.47;;;15.40;99.90;;;;;;5076972;28;20058;-65
2021/12/30 09:25:23;;;;;;;13.90;2.55;;;15.50;99.90;;;;;;5077025;28;20033;-64
2021/12/30 09:27:51;;;;;;;10.35;2.53;;;15.40;99.90;;;;;;5076982;28;20085;-63
2021/12/30 09:30:18;;;;;;;8.40;2.00;;;15.30;99.90;;;;;;5076998;28;20028;-63
2021/12/30 09:32:45;;;;;;;12.00;2.67;;;15.30;99.90;;;;;;5076961;28;20374;-64
2021/12/30 09:35:13;;;;;;;10.38;2.58;;;15.30;99.90;;;;;;5076637;28;20045;-65
2021/12/30 09:37:40;;;;;;;15.52;3.17;;;15.40;99.90;;;;;;5076814;28;20025;-65
2021/12/30 09:40:10;;;;;;;7.47;2.42;;;15.30;99.90;;;;;;5075987;28;20095;-65
2021/12/30 09:42:37;;;;;;;11.38;2.38;;;15.30;99.90;;;;;;5076815;28;20039;-66
2021/12/30 09:45:04;;;;;;;7.70;2.28;;;15.30;99.90;;;;;;5076712;28;20280;-65
2021/12/30 09:47:30;;;;;;;12.50;2.67;;;15.30;99.90;;;;;;5076719;28;20124;-60
2021/12/30 09:49:56;;;;;;;11.50;2.47;;;15.30;99.90;;;;;;5076723;28;20112;-66
2021/12/30 09:52:22;;;;;;;7.78;2.28;;;15.50;99.90;;;;;;5076522;28;20115;-64
2021/12/30 09:54:48;;;;;;;10.05;2.40;;;15.60;99.90;;;;;;5076649;28;20037;-63
2021/12/30 09:57:14;;;;;;;11.55;2.38;;;15.60;99.90;;;;;;5076767;28;20021;-66
2021/12/30 09:59:40;;;;;;;8.00;2.25;;;15.70;99.90;;;;;;5076721;28;20028;-62
2021/12/30 10:02:05;;;;;;;12.15;2.40;;;15.50;99.90;;;;;;5077204;28;20354;-63
2021/12/30 10:04:33;;;;;;;12.50;2.25;;;15.60;99.90;;;;;;5042875;28;20388;-65
2021/12/30 10:07:01;;;;;;;6.95;1.98;;;15.70;99.90;;;;;;5076084;28;20396;-65
2021/12/30 10:09:45;;;;;;;8.60;2.28;;;15.80;99.90;;;;;;5075958;28;20043;-65
2021/12/30 10:12:12;;;;;;;10.63;2.00;;;15.80;99.90;;;;;;5059372;28;20036;-65
2021/12/30 10:14:39;;;;;;;9.85;2.15;;;15.80;99.90;;;;;;5075947;28;20021;-64
2021/12/30 10:17:17;;;;;;;9.38;2.10;;;15.70;99.90;;;;;;5059333;28;20037;-63
2021/12/30 10:19:43;;;;;;;9.05;2.25;;;15.70;99.90;;;;;;5076599;28;20025;-66
2021/12/30 10:22:11;;;;;;;7.35;1.90;;;15.60;99.90;;;;;;5076775;28;20162;-61
2021/12/30 10:24:38;;;;;;;9.80;2.03;;;15.70;99.90;;;;;;5076501;28;20028;-66
2021/12/30 10:27:05;;;;;;;11.80;2.10;;;15.90;99.90;;;;;;5076474;28;20097;-66
2021/12/30 10:29:47;;;;;;;10.18;2.10;;;15.90;99.90;;;;;;5076415;28;20115;-62
2021/12/30 10:32:15;;;;;;;9.80;2.13;;;16.00;99.90;;;;;;5079517;28;20314;-61
2021/12/30 10:35:02;;;;;;;9.40;2.10;;;15.90;99.90;;;;;;5080232;28;20028;-64
2021/12/30 10:37:28;;;;;;;7.32;1.80;;;16.10;99.90;;;;;;5080597;28;20376;-65
2021/12/30 10:39:54;;;;;;;12.48;2.25;;;16.10;99.90;;;;;;5046207;28;20039;-61
2021/12/30 10:42:21;;;;;;;7.25;1.40;;;16.20;99.90;;;;;;5080130;28;20037;-64
2021/12/30 10:44:52;;;;;;;7.47;1.80;;;16.00;99.90;;;;;;5080370;28;20391;-64
2021/12/30 10:47:20;;;;;;;6.15;1.80;;;15.90;99.90;;;;;;5080212;28;20031;-63
2021/12/30 10:50:01;;;;;;;9.57;2.00;;;15.60;99.90;;;;;;5080200;28;20036;-67
2021/12/30 10:52:27;;;;;;;8.38;1.75;;;15.80;99.90;;;;;;5079309;28;20040;-65
2021/12/30 10:54:54;;;;;;;5.63;2.03;;;15.90;99.90;;;;;;5079918;28;20411;-67
2021/12/30 10:57:20;;;;;;;7.60;1.80;;;16.10;99.90;;;;;;5079115;28;20031;-61
2021/12/30 10:59:50;;;;;;;8.05;1.75;;;16.30;99.90;;;;;;5079165;28;20028;-66
2021/12/30 11:02:21;;;;;;;7.18;1.95;;;16.30;99.90;;;;;;5079712;28;20032;-66
2021/12/30 11:04:53;;;;;;;8.70;1.58;;;16.20;99.90;;;;;;5079791;28;20097;-67
2021/12/30 11:07:23;;;;;;;7.95;1.70;;;16.00;99.90;;;;;;5079665;28;20033;-65
2021/12/30 11:09:59;;;;;;;6.95;1.58;;;16.30;99.90;;;;;;5079639;28;20052;-66
2021/12/30 11:12:28;;;;;;;7.43;1.70;;;16.20;99.90;;;;;;5079577;28;20033;-66
2021/12/30 11:14:55;;;;;;;8.70;1.70;;;16.40;99.90;;;;;;5079494;28;20024;-65
2021/12/30 11:17:33;;;;;;;7.40;1.80;;;16.30;99.90;;;;;;5078916;28;20329;-62
2021/12/30 11:20:06;;;;;;;9.18;1.73;;;16.10;99.90;;;;;;5062213;28;20040;-64
2021/12/30 11:22:35;;;;;;;4.65;1.48;;;16.10;99.90;;;;;;5078647;28;20025;-62
2021/12/30 11:25:06;;;;;;;6.10;1.70;;;15.90;99.90;;;;;;5078748;28;20157;-64
2021/12/30 11:27:33;;;;;;;5.57;1.52;;;16.10;99.90;;;;;;5079401;28;20036;-62
2021/12/30 11:30:04;;;;;;;5.25;1.45;;;16.30;99.90;;;;;;5079250;28;20016;-65
2021/12/30 11:32:32;;;;;;;5.97;1.40;;;16.40;99.90;;;;;;5079551;28;20055;-62
2021/12/30 11:34:59;;;;;;;7.72;1.60;;;16.50;99.90;;;;;;5078921;28;20086;-65
2021/12/30 11:37:26;;;;;;;5.32;1.40;;;16.40;99.90;;;;;;5078551;28;20028;-63
2021/12/30 11:39:54;;;;;;;8.55;2.05;;;16.40;99.90;;;;;;5079213;28;20033;-62
2021/12/30 11:42:28;;;;;;;6.38;1.38;;;16.50;99.90;;;;;;5077554;28;20342;-62
2021/12/30 11:44:56;;;;;;;6.10;1.88;;;16.20;99.90;;;;;;5078362;28;20032;-63
2021/12/30 11:47:34;;;;;;;5.20;1.23;;;16.20;99.90;;;;;;5078301;28;20060;-63
2021/12/30 11:50:26;;;;;;;4.57;1.25;;;16.30;99.90;;;;;;5078227;28;20024;-62
2021/12/30 11:53:25;;;;;;;6.72;1.67;;;16.40;99.90;;;;;;5048390;28;20040;-65
2021/12/30 11:55:56;;;;;;;4.10;1.08;;;16.40;99.90;;;;;;5078820;28;20311;-65
2021/12/30 12:01:10;;;;;;;4.97;1.30;;;16.40;99.90;;;;;;5078767;28;20174;-64
2021/12/30 12:03:53;;;;;;;6.85;1.90;;;16.20;99.90;;;;;;5078901;28;20021;-66
2021/12/30 12:06:27;;;;;;;5.13;1.20;;;16.30;99.90;;;;;;5079255;28;20029;-67
2021/12/30 12:09:00;;;;;;;7.40;1.58;;;16.30;99.90;;;;;;5078624;28;20032;-63
2021/12/30 12:11:32;;;;;;;3.20;1.10;;;16.20;99.90;;;;;;5078029;28;20089;-63
2021/12/30 12:14:15;;;;;;;9.18;1.40;;;16.20;99.90;;;;;;5077736;28;20307;-64
2021/12/30 12:16:47;;;;;;;6.47;1.40;;;16.00;99.90;;;;;;5078530;28;20119;-62
2021/12/30 12:19:15;;;;;;;4.78;1.33;;;16.00;99.90;;;;;;5077640;28;20123;-66
2021/12/30 12:21:53;;;;;;;5.45;1.20;;;16.00;99.90;;;;;;5078378;28;20023;-61
2021/12/30 12:24:22;;;;;;;6.28;1.58;;;16.20;99.90;;;;;;5078454;28;20021;-64
2021/12/30 12:26:50;;;;;;;4.85;1.23;;;16.40;99.90;;;;;;5077491;28;20300;-63
2021/12/30 12:29:29;;;;;;;5.95;1.52;;;16.50;99.90;;;;;;5077644;28;20197;-63
2021/12/30 12:32:03;;;;;;;6.07;1.30;;;16.50;99.90;;;;;;5077313;28;20074;-63
2021/12/30 12:34:38;;;;;;;5.82;1.40;;;16.50;99.90;;;;;;5078149;28;20033;-65
2021/12/30 12:37:26;;;;;;;5.80;1.15;;;16.70;99.90;;;;;;5060508;28;20450;-63
2021/12/30 12:40:03;;;;;;;5.07;1.17;;;17.00;99.90;;;;;;5077707;28;20089;-62
2021/12/30 12:42:53;;;;;;;2.53;1.33;;;17.10;99.90;;;;;;5077298;28;20028;-66
2021/12/30 12:45:27;;;;;;;5.15;1.27;;;17.00;99.90;;;;;;5077068;28;20032;-65
2021/12/30 12:48:20;;;;;;;6.47;1.50;;;16.90;99.90;;;;;;5078140;28;20043;-66
2021/12/30 12:50:51;;;;;;;;;;;16.80;99.90;;;;;;5077590;28;20356;-63
2021/12/30 12:53:32;;;;;;;4.07;1.33;;;16.70;99.90;;;;;;5077842;28;20276;-62